Time;durP1;ratioP1;P1;durP2;ratioP2;P2;SDS_P1;SDS_P2;PMS_P1;PMS_P2;Temp;Humidity;BMP_temperature;BMP_pressure;BME280_temperature;BME280_humidity;BME280_pressure;Samples;Min_cycle;Max_cycle;Signal;HPM_P1;HPM_P2
2021/08/01 00:02:25;0.00;0.00;0.62;0.00;0.00;0.62;3.87;2.90;;;24.90;36.70;;;;;;2264794;61;20354;-55
2021/08/01 00:04:52;0.00;0.00;0.62;0.00;0.00;0.62;3.57;2.80;;;24.90;36.80;;;;;;2265797;61;20657;-56
2021/08/01 00:07:18;0.00;0.00;0.62;0.00;0.00;0.62;3.00;2.50;;;24.90;36.80;;;;;;2265662;61;20597;-56
2021/08/01 00:09:45;0.00;0.00;0.62;0.00;0.00;0.62;3.60;2.73;;;24.80;36.80;;;;;;2264880;61;20372;-59
2021/08/01 00:12:12;0.00;0.00;0.62;0.00;0.00;0.62;4.40;2.83;;;24.80;36.80;;;;;;2265281;61;20434;-58
2021/08/01 00:14:38;0.00;0.00;0.62;0.00;0.00;0.62;4.40;2.73;;;24.80;36.90;;;;;;2265656;61;20350;-53
2021/08/01 00:17:05;0.00;0.00;0.62;0.00;0.00;0.62;4.83;3.40;;;24.80;36.90;;;;;;2264442;61;20465;-58
2021/08/01 00:19:33;0.00;0.00;0.62;0.00;0.00;0.62;2.80;2.53;;;24.80;36.90;;;;;;2265646;61;20350;-54
2021/08/01 00:21:59;0.00;0.00;0.62;0.00;0.00;0.62;2.97;2.63;;;24.70;36.90;;;;;;2265015;61;20405;-57
2021/08/01 00:24:26;0.00;0.00;0.62;0.00;0.00;0.62;3.30;2.80;;;24.70;37.00;;;;;;2265134;61;20350;-58
2021/08/01 00:26:53;0.00;0.00;0.62;0.00;0.00;0.62;3.40;2.97;;;24.70;37.00;;;;;;2265621;61;20374;-57
2021/08/01 00:29:19;0.00;0.00;0.62;0.00;0.00;0.62;3.63;3.27;;;24.70;37.20;;;;;;2265564;61;20734;-55
2021/08/01 00:31:47;0.00;0.00;0.62;0.00;0.00;0.62;3.83;3.30;;;24.60;37.20;;;;;;2265080;61;20369;-55
2021/08/01 00:34:14;0.00;0.00;0.62;0.00;0.00;0.62;3.67;2.90;;;24.60;37.20;;;;;;2265655;61;20429;-55
2021/08/01 00:36:42;0.00;0.00;0.62;0.00;0.00;0.62;6.30;3.17;;;24.60;37.30;;;;;;2265523;61;20382;-56
2021/08/01 00:39:11;0.00;0.00;0.62;0.00;0.00;0.62;3.57;2.93;;;24.50;37.30;;;;;;2265101;61;20396;-58
2021/08/01 00:41:38;0.00;0.00;0.62;0.00;0.00;0.62;4.50;3.70;;;24.50;37.30;;;;;;2265373;61;20358;-58
2021/08/01 00:44:05;0.00;0.00;0.62;0.00;0.00;0.62;3.30;3.00;;;24.50;37.40;;;;;;2265126;61;20360;-53
2021/08/01 00:46:32;0.00;0.00;0.62;0.00;0.00;0.62;3.23;2.93;;;24.40;37.40;;;;;;2265036;61;20382;-57
2021/08/01 00:49:01;0.00;0.00;0.62;0.00;0.00;0.62;3.80;2.73;;;24.40;37.40;;;;;;2265373;61;20641;-56
2021/08/01 00:51:28;0.00;0.00;0.62;0.00;0.00;0.62;4.33;2.90;;;24.40;37.50;;;;;;2265584;61;20361;-56
2021/08/01 00:53:59;0.00;0.00;0.62;0.00;0.00;0.62;3.87;3.57;;;24.30;37.60;;;;;;2264675;61;20403;-56
2021/08/01 00:56:26;0.00;0.00;0.62;0.00;0.00;0.62;4.50;3.10;;;24.30;37.70;;;;;;2264753;61;20411;-55
2021/08/01 00:58:53;0.00;0.00;0.62;0.00;0.00;0.62;3.40;3.10;;;24.30;37.80;;;;;;2265605;61;20350;-55
2021/08/01 01:01:27;0.00;0.00;0.62;0.00;0.00;0.62;3.53;2.40;;;24.30;37.80;;;;;;2264459;61;20762;-58
2021/08/01 01:04:09;0.00;0.00;0.62;0.00;0.00;0.62;3.50;3.20;;;24.30;37.80;;;;;;2265421;61;20360;-59
2021/08/01 01:06:44;0.00;0.00;0.62;0.00;0.00;0.62;3.90;2.43;;;24.30;37.80;;;;;;2265175;61;20700;-54
2021/08/01 01:09:22;0.00;0.00;0.62;0.00;0.00;0.62;3.37;2.90;;;24.30;37.80;;;;;;2264409;61;20431;-55
2021/08/01 01:12:04;0.00;0.00;0.62;0.00;0.00;0.62;4.30;3.17;;;24.20;37.80;;;;;;2265510;61;20358;-54
2021/08/01 01:14:39;0.00;0.00;0.62;0.00;0.00;0.62;6.67;3.13;;;24.20;37.80;;;;;;2264914;61;20499;-56
2021/08/01 01:17:09;0.00;0.00;0.62;0.00;0.00;0.62;4.10;3.37;;;24.20;37.80;;;;;;2264341;61;20374;-59
2021/08/01 01:20:08;0.00;0.00;0.62;0.00;0.00;0.62;4.17;3.20;;;24.20;37.90;;;;;;2265129;61;20395;-58
2021/08/01 01:22:45;0.00;0.00;0.62;0.00;0.00;0.62;3.40;3.10;;;24.20;38.00;;;;;;2264706;61;20373;-59
2021/08/01 01:25:41;0.00;0.00;0.62;0.00;0.00;0.62;3.40;3.10;;;24.10;37.90;;;;;;2265199;61;20358;-60
2021/08/01 01:28:14;0.00;0.00;0.62;0.00;0.00;0.62;3.10;2.80;;;24.10;38.00;;;;;;2265095;61;20594;-57
2021/08/01 01:30:50;0.00;0.00;0.62;0.00;0.00;0.62;4.00;3.30;;;24.10;38.00;;;;;;2264371;61;20354;-58
2021/08/01 01:33:23;0.00;0.00;0.62;0.00;0.00;0.62;2.60;2.40;;;24.10;38.10;;;;;;2264928;61;20682;-57
2021/08/01 01:35:55;0.00;0.00;0.62;0.00;0.00;0.62;3.30;3.00;;;24.00;38.00;;;;;;2264990;61;20377;-57
2021/08/01 01:38:25;0.00;0.00;0.62;0.00;0.00;0.62;7.97;3.50;;;24.00;38.10;;;;;;2264482;61;20400;-56
2021/08/01 01:41:18;0.00;0.00;0.62;0.00;0.00;0.62;3.80;3.40;;;24.00;38.20;;;;;;2265154;61;20369;-58
2021/08/01 01:44:10;0.00;0.00;0.62;0.00;0.00;0.62;3.03;2.70;;;24.00;38.20;;;;;;2265405;61;20362;-58
2021/08/01 01:46:38;0.00;0.00;0.62;0.00;0.00;0.62;3.80;3.50;;;24.00;38.20;;;;;;2265572;61;20376;-59
2021/08/01 01:49:06;0.00;0.00;0.62;0.00;0.00;0.62;4.20;3.80;;;23.90;38.20;;;;;;2262348;61;20381;-58
2021/08/01 01:51:36;0.00;0.00;0.62;0.00;0.00;0.62;3.43;3.13;;;23.90;38.30;;;;;;2265277;61;20350;-53
2021/08/01 01:54:06;0.00;0.00;0.62;0.00;0.00;0.62;4.30;3.90;;;23.90;38.40;;;;;;2265050;61;20369;-57
2021/08/01 01:56:35;0.00;0.00;0.62;0.00;0.00;0.62;4.13;3.70;;;23.90;38.50;;;;;;2265644;61;20833;-56
2021/08/01 01:59:04;0.00;0.00;0.62;0.00;0.00;0.62;4.00;3.30;;;23.90;38.60;;;;;;2265368;61;20361;-56
2021/08/01 02:01:32;0.00;0.00;0.62;0.00;0.00;0.62;3.90;3.10;;;23.90;38.50;;;;;;2264893;61;20688;-55
2021/08/01 02:03:59;0.00;0.00;0.62;0.00;0.00;0.62;4.60;3.33;;;23.90;38.50;;;;;;2265676;61;20359;-53
2021/08/01 02:06:45;0.00;0.00;0.62;0.00;0.00;0.62;4.87;3.77;;;23.90;38.50;;;;;;2265762;61;20741;-56
2021/08/01 02:09:37;0.00;0.00;0.62;0.00;0.00;0.62;6.50;5.13;;;23.90;38.50;;;;;;2265155;61;20377;-58
2021/08/01 02:12:15;0.00;0.00;0.62;0.00;0.00;0.62;5.77;5.27;;;23.90;38.50;;;;;;2265915;61;20358;-56
2021/08/01 02:14:56;0.00;0.00;0.62;0.00;0.00;0.62;5.47;4.97;;;23.80;38.50;;;;;;2265053;61;20350;-59
2021/08/01 02:17:28;0.00;0.00;0.62;0.00;0.00;0.62;4.80;4.33;;;23.90;38.70;;;;;;2265307;61;20377;-54
2021/08/01 02:19:59;0.00;0.00;0.62;0.00;0.00;0.62;4.57;4.13;;;23.80;38.60;;;;;;2265500;61;20436;-59
2021/08/01 02:22:28;0.00;0.00;0.62;0.00;0.00;0.62;4.67;4.07;;;23.80;38.70;;;;;;2264802;61;20670;-57
2021/08/01 02:24:57;0.00;0.00;0.62;0.00;0.00;0.62;6.07;3.47;;;23.80;38.80;;;;;;2265408;61;20354;-58
2021/08/01 02:27:26;0.00;0.00;0.62;0.00;0.00;0.62;3.87;2.90;;;23.80;38.80;;;;;;2265526;61;20404;-54
2021/08/01 02:29:57;0.00;0.00;0.62;0.00;0.00;0.62;4.33;3.30;;;23.80;38.80;;;;;;2264901;61;20622;-58
2021/08/01 02:32:24;0.00;0.00;0.62;0.00;0.00;0.62;3.30;3.00;;;23.80;38.80;;;;;;2265353;61;20354;-60
2021/08/01 02:34:52;0.00;0.00;0.62;0.00;0.00;0.62;4.20;3.80;;;23.70;38.70;;;;;;2265961;61;20593;-56
2021/08/01 02:37:20;0.00;0.00;0.62;0.00;0.00;0.62;3.70;3.40;;;23.70;38.70;;;;;;2265312;61;20382;-58
2021/08/01 02:39:47;0.00;0.00;0.62;0.00;0.00;0.62;4.80;3.47;;;23.70;38.70;;;;;;2265248;61;20556;-56
2021/08/01 02:42:15;0.00;0.00;0.62;0.00;0.00;0.62;5.97;3.10;;;23.70;38.70;;;;;;2265395;61;20585;-55
2021/08/01 02:44:43;0.00;0.00;0.62;0.00;0.00;0.62;4.30;3.43;;;23.60;38.60;;;;;;2265414;61;20573;-57
2021/08/01 02:47:17;0.00;0.00;0.62;0.00;0.00;0.62;3.33;3.00;;;23.60;38.60;;;;;;2265295;61;20468;-60
2021/08/01 02:49:46;0.00;0.00;0.62;0.00;0.00;0.62;4.20;3.17;;;23.60;38.60;;;;;;2265517;61;20385;-60
2021/08/01 02:52:18;0.00;0.00;0.62;0.00;0.00;0.62;2.93;2.70;;;23.60;38.60;;;;;;2264819;61;20358;-58
2021/08/01 02:54:49;0.00;0.00;0.62;0.00;0.00;0.62;3.50;3.10;;;23.60;38.60;;;;;;2265017;61;20765;-59
2021/08/01 02:57:19;0.00;0.00;0.62;0.00;0.00;0.62;4.47;3.53;;;23.60;38.60;;;;;;2265451;61;20381;-60
2021/08/01 02:59:47;0.00;0.00;0.62;0.00;0.00;0.62;3.63;3.33;;;23.50;38.60;;;;;;2264939;61;20678;-58
2021/08/01 03:02:15;0.00;0.00;0.62;0.00;0.00;0.62;4.13;3.00;;;23.50;38.70;;;;;;2265593;61;20362;-56
2021/08/01 03:04:54;0.00;0.00;0.62;0.00;0.00;0.62;4.80;2.90;;;23.50;38.70;;;;;;2265549;61;20601;-56
2021/08/01 03:07:20;0.00;0.00;0.62;0.00;0.00;0.62;3.00;2.70;;;23.50;38.80;;;;;;2265122;61;20734;-57
2021/08/01 03:09:51;0.00;0.00;0.62;0.00;0.00;0.62;3.60;3.13;;;23.50;38.90;;;;;;2265448;61;20413;-58
2021/08/01 03:12:19;0.00;0.00;0.62;0.00;0.00;0.62;5.23;3.67;;;23.50;39.10;;;;;;2265425;61;20690;-56
2021/08/01 03:14:46;0.00;0.00;0.62;0.00;0.00;0.62;4.60;3.40;;;23.50;39.10;;;;;;2264508;61;20366;-58
2021/08/01 03:17:13;0.00;0.00;0.62;0.00;0.00;0.62;3.77;3.40;;;23.50;39.10;;;;;;2265821;61;20377;-55
2021/08/01 03:19:40;0.00;0.00;0.62;0.00;0.00;0.62;4.60;3.53;;;23.50;39.20;;;;;;2265449;61;20357;-55
2021/08/01 03:22:09;0.00;0.00;0.62;0.00;0.00;0.62;3.80;3.10;;;23.50;39.10;;;;;;2264390;61;20366;-58
2021/08/01 03:24:40;0.00;0.00;0.62;0.00;0.00;0.62;3.83;3.40;;;23.40;39.10;;;;;;2265477;61;20575;-59
2021/08/01 03:27:14;0.00;0.00;0.62;0.00;0.00;0.62;5.00;3.80;;;23.40;39.10;;;;;;2265918;61;20374;-57
2021/08/01 03:29:43;0.00;0.00;0.62;0.00;0.00;0.62;4.50;3.93;;;23.40;39.20;;;;;;2264514;61;20377;-58
2021/08/01 03:32:16;0.00;0.00;0.62;0.00;0.00;0.62;3.80;3.50;;;23.40;39.30;;;;;;2265894;61;20384;-58
2021/08/01 03:34:43;0.00;0.00;0.62;0.00;0.00;0.62;4.10;3.70;;;23.40;39.30;;;;;;2265376;61;20366;-56
2021/08/01 03:37:10;0.00;0.00;0.62;0.00;0.00;0.62;4.07;3.67;;;23.40;39.30;;;;;;2264487;61;20670;-57
2021/08/01 03:39:56;0.00;0.00;0.62;0.00;0.00;0.62;3.77;3.40;;;23.40;39.40;;;;;;2265763;61;20347;-57
2021/08/01 03:42:22;0.00;0.00;0.62;0.00;0.00;0.62;4.20;3.80;;;23.40;39.50;;;;;;2265473;61;20659;-57
2021/08/01 03:44:50;0.00;0.00;0.62;0.00;0.00;0.62;4.37;3.97;;;23.40;39.50;;;;;;2265165;61;20691;-55
2021/08/01 03:47:17;0.00;0.00;0.62;0.00;0.00;0.62;4.50;4.10;;;23.40;39.50;;;;;;2265858;61;20382;-56
2021/08/01 03:49:44;0.00;0.00;0.62;0.00;0.00;0.62;3.57;3.00;;;23.40;39.60;;;;;;2265058;61;20385;-58
2021/08/01 03:52:10;0.00;0.00;0.62;0.00;0.00;0.62;4.00;3.60;;;23.40;39.60;;;;;;2265306;61;20747;-57
2021/08/01 03:54:37;0.00;0.00;0.62;0.00;0.00;0.62;4.10;3.67;;;23.40;39.60;;;;;;2265862;61;20358;-58
2021/08/01 03:57:05;0.00;0.00;0.62;0.00;0.00;0.62;4.10;3.60;;;23.30;39.50;;;;;;2265303;61;20683;-59
2021/08/01 03:59:34;0.00;0.00;0.62;0.00;0.00;0.62;4.37;3.80;;;23.30;39.50;;;;;;2264755;61;20433;-57
2021/08/01 04:02:02;0.00;0.00;0.62;0.00;0.00;0.62;4.00;3.60;;;23.40;39.70;;;;;;2265664;61;20612;-55
2021/08/01 04:04:29;0.00;0.00;0.62;0.00;0.00;0.62;5.10;3.20;;;23.30;39.60;;;;;;2265353;61;20358;-58
2021/08/01 04:06:56;0.00;0.00;0.62;0.00;0.00;0.62;4.20;3.80;;;23.30;39.60;;;;;;2265083;61;20376;-56
2021/08/01 04:09:23;0.00;0.00;0.62;0.00;0.00;0.62;4.00;3.70;;;23.30;39.70;;;;;;2265824;61;20397;-58
2021/08/01 04:11:49;0.00;0.00;0.62;0.00;0.00;0.62;5.40;4.23;;;23.30;39.80;;;;;;2265379;61;20695;-59
2021/08/01 04:14:16;0.00;0.00;0.62;0.00;0.00;0.62;4.63;4.13;;;23.30;39.80;;;;;;2265252;61;20690;-60
2021/08/01 04:16:43;0.00;0.00;0.62;0.00;0.00;0.62;3.60;3.20;;;23.30;39.80;;;;;;2265647;61;20627;-57
2021/08/01 04:19:13;0.00;0.00;0.62;0.00;0.00;0.62;6.03;3.90;;;23.30;39.90;;;;;;2265522;61;20396;-58
2021/08/01 04:21:40;0.00;0.00;0.62;0.00;0.00;0.62;4.20;3.80;;;23.20;39.90;;;;;;2264949;61;20354;-58
2021/08/01 04:24:07;0.00;0.00;0.62;0.00;0.00;0.62;4.13;3.73;;;23.20;39.90;;;;;;2265736;61;20366;-59
2021/08/01 04:26:34;0.00;0.00;0.62;0.00;0.00;0.62;4.90;4.13;;;23.20;40.00;;;;;;2265571;61;20374;-56
2021/08/01 04:29:01;0.00;0.00;0.62;0.00;0.00;0.62;5.17;4.30;;;23.20;40.00;;;;;;2264935;61;20654;-59
2021/08/01 04:31:28;0.00;0.00;0.62;0.00;0.00;0.62;6.80;4.83;;;23.20;40.00;;;;;;2265629;61;20689;-57
2021/08/01 04:33:54;0.00;0.00;0.62;0.00;0.00;0.62;4.20;3.80;;;23.20;40.10;;;;;;2265224;61;20718;-60
2021/08/01 04:36:22;0.00;0.00;0.62;0.00;0.00;0.62;4.50;3.50;;;23.20;40.30;;;;;;2264668;61;20601;-58
2021/08/01 04:38:49;0.00;0.00;0.62;0.00;0.00;0.62;4.70;4.30;;;23.10;40.20;;;;;;2265630;61;20358;-58
2021/08/01 04:41:16;0.00;0.00;0.62;0.00;0.00;0.62;4.03;3.63;;;23.10;40.30;;;;;;2265635;61;20351;-54
2021/08/01 04:43:42;0.00;0.00;0.62;0.00;0.00;0.62;4.70;4.30;;;23.10;40.40;;;;;;2264715;61;20358;-55
2021/08/01 04:46:09;0.00;0.00;0.62;0.00;0.00;0.62;5.13;3.97;;;23.10;41.10;;;;;;2265615;61;20374;-59
2021/08/01 04:48:36;0.00;0.00;0.62;0.00;0.00;0.62;6.40;5.07;;;23.10;40.50;;;;;;2265720;61;20384;-59
2021/08/01 04:51:03;0.00;0.00;0.62;0.00;0.00;0.62;5.00;4.30;;;23.10;40.50;;;;;;2264554;61;20431;-60
2021/08/01 04:53:30;0.00;0.00;0.62;0.00;0.00;0.62;5.20;4.40;;;23.10;40.50;;;;;;2265707;61;20354;-60
2021/08/01 04:55:57;0.00;0.00;0.62;0.00;0.00;0.62;5.00;4.20;;;23.10;40.60;;;;;;2265519;61;20378;-58
2021/08/01 04:58:24;0.00;0.00;0.62;0.00;0.00;0.62;5.10;4.60;;;23.10;40.50;;;;;;2264627;61;20726;-61
2021/08/01 05:00:50;0.00;0.00;0.62;0.00;0.00;0.62;5.63;3.87;;;23.10;40.60;;;;;;2265003;61;20605;-59
2021/08/01 05:03:17;0.00;0.00;0.62;0.00;0.00;0.62;8.00;4.50;;;23.10;40.60;;;;;;2265589;61;20369;-60
2021/08/01 05:05:43;0.00;0.00;0.62;0.00;0.00;0.62;4.67;3.90;;;23.10;40.50;;;;;;2264722;61;20374;-57
2021/08/01 05:08:10;0.00;0.00;0.62;0.00;0.00;0.62;4.03;3.63;;;23.10;40.60;;;;;;2265616;61;20388;-58
2021/08/01 05:10:38;0.00;0.00;0.62;0.00;0.00;0.62;5.17;4.00;;;23.10;40.60;;;;;;2265577;61;20592;-58
2021/08/01 05:13:06;0.00;0.00;0.62;0.00;0.00;0.62;4.53;4.00;;;23.10;40.60;;;;;;2264387;61;20627;-58
2021/08/01 05:15:33;0.00;0.00;0.62;0.00;0.00;0.62;4.93;4.43;;;23.10;40.60;;;;;;2265342;61;20361;-58
2021/08/01 05:18:01;0.00;0.00;0.62;0.00;0.00;0.62;4.23;3.83;;;23.10;40.70;;;;;;2266130;61;20399;-60
2021/08/01 05:20:27;0.00;0.00;0.62;0.00;0.00;0.62;5.57;3.87;;;23.10;40.60;;;;;;2265493;61;20357;-58
2021/08/01 05:22:54;0.00;0.00;0.62;0.00;0.00;0.62;7.93;3.80;;;23.10;40.70;;;;;;2265223;61;20370;-56
2021/08/01 05:25:20;0.00;0.00;0.62;0.00;0.00;0.62;5.27;4.77;;;23.10;40.70;;;;;;2266380;61;20350;-56
2021/08/01 05:27:48;0.00;0.00;0.62;0.00;0.00;0.62;4.87;3.77;;;23.10;40.70;;;;;;2265513;61;20349;-58
2021/08/01 05:30:15;0.00;0.00;0.62;0.00;0.00;0.62;4.27;3.87;;;23.10;40.70;;;;;;2266311;61;20408;-56
2021/08/01 05:32:41;0.00;0.00;0.62;0.00;0.00;0.62;4.70;3.83;;;23.10;40.70;;;;;;2266318;61;20372;-58
2021/08/01 05:35:09;0.00;0.00;0.62;0.00;0.00;0.62;4.97;4.47;;;23.10;40.80;;;;;;2265781;61;20346;-58
2021/08/01 05:37:35;0.00;0.00;0.62;0.00;0.00;0.62;4.97;4.10;;;23.10;40.80;;;;;;2266186;61;20376;-59
2021/08/01 05:40:03;0.00;0.00;0.62;0.00;0.00;0.62;4.43;3.80;;;23.10;40.80;;;;;;2266177;61;20391;-57
2021/08/01 05:42:32;0.00;0.00;0.62;0.00;0.00;0.62;4.00;3.60;;;23.10;40.80;;;;;;2265631;61;20358;-56
2021/08/01 05:45:00;0.00;0.00;0.62;0.00;0.00;0.62;4.23;3.83;;;23.10;40.80;;;;;;2266322;61;20350;-56
2021/08/01 05:47:26;0.00;0.00;0.62;0.00;0.00;0.62;4.50;4.10;;;23.10;40.90;;;;;;2266213;61;20456;-56
2021/08/01 05:49:53;0.00;0.00;0.62;0.00;0.00;0.62;5.27;4.30;;;23.10;40.90;;;;;;2265681;61;20389;-55
2021/08/01 05:52:20;0.00;0.00;0.62;0.00;0.00;0.62;4.67;4.17;;;23.10;40.90;;;;;;2266278;61;20358;-54
2021/08/01 05:54:46;0.00;0.00;0.62;0.00;0.00;0.62;5.33;4.27;;;23.10;41.00;;;;;;2266276;61;20697;-54
2021/08/01 05:57:12;0.00;0.00;0.62;0.00;0.00;0.62;4.20;3.80;;;23.10;41.10;;;;;;2265550;61;20417;-55
2021/08/01 05:59:39;0.00;0.00;0.62;0.00;0.00;0.62;7.13;5.30;;;23.10;41.00;;;;;;2266171;61;20407;-56
2021/08/01 06:02:07;0.00;0.00;0.62;0.00;0.00;0.62;5.33;4.83;;;23.10;41.10;;;;;;2266161;61;20433;-57
2021/08/01 06:04:34;0.00;0.00;0.62;0.00;0.00;0.62;4.83;4.40;;;23.10;41.10;;;;;;2265651;61;20365;-56
2021/08/01 06:07:00;0.00;0.00;0.62;0.00;0.00;0.62;5.47;4.97;;;23.20;41.30;;;;;;2266130;61;20374;-57
2021/08/01 06:09:27;0.00;0.00;0.62;0.00;0.00;0.62;6.83;5.03;;;23.10;41.10;;;;;;2266245;61;20374;-61
2021/08/01 06:11:54;0.00;0.00;0.62;0.00;0.00;0.62;5.30;4.90;;;23.10;41.10;;;;;;2265457;61;20350;-59
2021/08/01 06:14:21;0.00;0.00;0.62;0.00;0.00;0.62;5.70;5.20;;;23.10;41.10;;;;;;2266181;61;20354;-57
2021/08/01 06:16:47;0.00;0.00;0.62;0.00;0.00;0.62;4.30;3.90;;;23.20;41.20;;;;;;2266191;61;20385;-59
2021/08/01 06:19:15;0.00;0.00;0.62;0.00;0.00;0.62;5.77;3.80;;;23.20;41.20;;;;;;2265536;61;20419;-58
2021/08/01 06:21:42;0.00;0.00;0.62;0.00;0.00;0.62;4.07;3.43;;;23.20;41.20;;;;;;2265999;61;20362;-60
2021/08/01 06:24:08;0.00;0.00;0.62;0.00;0.00;0.62;4.73;4.20;;;23.20;41.10;;;;;;2266209;61;20562;-59
2021/08/01 06:26:37;0.00;0.00;0.62;0.00;0.00;0.62;3.93;3.53;;;23.20;41.20;;;;;;2265589;61;20378;-61
2021/08/01 06:29:05;0.00;0.00;0.62;0.00;0.00;0.62;4.70;4.20;;;23.20;41.10;;;;;;2266077;61;20374;-60
2021/08/01 06:31:32;0.00;0.00;0.62;0.00;0.00;0.62;4.77;3.83;;;23.30;41.20;;;;;;2266152;61;20355;-59
2021/08/01 06:33:58;0.00;0.00;0.62;0.00;0.00;0.62;4.83;3.70;;;23.30;41.20;;;;;;2265466;61;20752;-61
2021/08/01 06:36:26;0.00;0.00;0.62;0.00;0.00;0.62;4.60;3.93;;;23.40;41.20;;;;;;2266004;61;20378;-62
2021/08/01 06:38:53;0.00;0.00;0.62;0.00;0.00;0.62;4.57;4.17;;;23.40;41.10;;;;;;2266073;61;20654;-59
2021/08/01 06:41:20;0.00;0.00;0.62;0.00;0.00;0.62;4.20;3.40;;;23.50;41.20;;;;;;2265381;61;20411;-58
2021/08/01 06:43:46;0.00;0.00;0.62;0.00;0.00;0.62;3.90;3.60;;;23.50;41.00;;;;;;2266061;61;20426;-59
2021/08/01 06:46:13;0.00;0.00;0.62;0.00;0.00;0.62;4.90;4.13;;;23.50;41.00;;;;;;2265639;61;20748;-58
2021/08/01 06:48:41;0.00;0.00;0.62;0.00;0.00;0.62;3.20;2.90;;;23.50;41.00;;;;;;2265538;61;20369;-57
2021/08/01 06:51:08;0.00;0.00;0.62;0.00;0.00;0.62;3.93;3.10;;;23.60;41.00;;;;;;2265504;61;20399;-57
2021/08/01 06:53:36;0.00;0.00;0.62;0.00;0.00;0.62;4.07;3.67;;;23.60;41.00;;;;;;2266149;61;20354;-56
2021/08/01 06:56:04;0.00;0.00;0.62;0.00;0.00;0.62;4.77;3.60;;;23.70;41.00;;;;;;2264854;61;20499;-57
2021/08/01 06:58:31;0.00;0.00;0.62;0.00;0.00;0.62;4.77;3.60;;;23.70;41.00;;;;;;2266074;61;20585;-56
2021/08/01 07:00:57;0.00;0.00;0.62;0.00;0.00;0.62;3.50;3.20;;;23.70;40.90;;;;;;2265997;61;20358;-56
2021/08/01 07:03:26;0.00;0.00;0.62;0.00;0.00;0.62;6.00;3.10;;;23.70;40.90;;;;;;2265358;61;20361;-57
2021/08/01 07:05:53;0.00;0.00;0.62;0.00;0.00;0.62;4.37;3.70;;;23.80;41.00;;;;;;2266116;61;20409;-57
2021/08/01 07:08:20;0.00;0.00;0.62;0.00;0.00;0.62;3.10;2.83;;;23.80;40.90;;;;;;2266579;61;20382;-55
2021/08/01 07:10:49;0.00;0.00;0.62;0.00;0.00;0.62;4.00;3.60;;;23.90;41.00;;;;;;2265462;61;20382;-57
2021/08/01 07:13:16;0.00;0.00;0.62;0.00;0.00;0.62;3.97;3.53;;;23.90;40.90;;;;;;2266169;61;20368;-55
2021/08/01 07:15:43;0.00;0.00;0.62;0.00;0.00;0.62;4.40;3.90;;;23.90;40.80;;;;;;2266030;61;20373;-54
2021/08/01 07:18:11;0.00;0.00;0.62;0.00;0.00;0.62;3.10;2.80;;;24.00;40.80;;;;;;2265211;61;20601;-55
2021/08/01 07:20:38;0.00;0.00;0.62;0.00;0.00;0.62;3.90;3.50;;;24.00;40.80;;;;;;2266068;61;20576;-55
2021/08/01 07:23:06;0.00;0.00;0.62;0.00;0.00;0.62;4.93;3.83;;;24.00;40.70;;;;;;2266022;61;20573;-58
2021/08/01 07:25:33;0.00;0.00;0.62;0.00;0.00;0.62;4.90;4.50;;;24.00;40.60;;;;;;2265327;61;20358;-56
2021/08/01 07:28:04;0.00;0.00;0.62;0.00;0.00;0.62;4.17;3.60;;;24.10;40.60;;;;;;2266033;61;20655;-55
2021/08/01 07:30:32;0.00;0.00;0.62;0.00;0.00;0.62;5.20;4.10;;;24.10;40.60;;;;;;2265570;61;20362;-57
2021/08/01 07:32:59;0.00;0.00;0.62;0.00;0.00;0.62;6.10;4.63;;;24.10;40.60;;;;;;2264908;61;20354;-57
2021/08/01 07:35:27;0.00;0.00;0.62;0.00;0.00;0.62;5.10;4.60;;;24.10;40.80;;;;;;2266100;61;20609;-55
2021/08/01 07:37:54;0.00;0.00;0.62;0.00;0.00;0.62;6.60;4.27;;;24.10;40.80;;;;;;2264711;61;20354;-54
2021/08/01 07:40:20;0.00;0.00;0.62;0.00;0.00;0.62;5.33;4.60;;;24.20;40.90;;;;;;2264901;61;20550;-55
2021/08/01 07:42:47;0.00;0.00;0.62;0.00;0.00;0.62;4.53;3.53;;;24.20;40.90;;;;;;2265903;61;20365;-58
2021/08/01 07:45:24;0.00;0.00;0.62;0.00;0.00;0.62;5.30;3.60;;;24.20;40.90;;;;;;2265453;61;20354;-57
2021/08/01 07:47:51;0.00;0.00;0.62;0.00;0.00;0.62;3.80;3.40;;;24.30;40.90;;;;;;2265180;61;20584;-58
2021/08/01 07:50:18;0.00;0.00;0.62;0.00;0.00;0.62;5.20;4.47;;;24.30;40.80;;;;;;2265832;61;20445;-57
2021/08/01 07:52:45;0.00;0.00;0.62;0.00;0.00;0.62;4.50;3.23;;;24.30;40.80;;;;;;2265456;61;20350;-56
2021/08/01 07:55:15;0.00;0.00;0.62;0.00;0.00;0.62;3.70;3.20;;;24.30;40.80;;;;;;2265252;61;20395;-58
2021/08/01 07:57:43;0.00;0.00;0.62;0.00;0.00;0.62;5.70;3.40;;;24.40;40.80;;;;;;2265716;61;20362;-54
2021/08/01 08:00:11;0.00;0.00;0.62;0.00;0.00;0.62;3.20;2.90;;;24.40;40.80;;;;;;2265238;61;20578;-55
2021/08/01 08:02:46;0.00;0.00;0.62;0.00;0.00;0.62;5.70;4.00;;;24.40;40.70;;;;;;2265254;61;20578;-55
2021/08/01 08:05:13;0.00;0.00;0.62;0.00;0.00;0.62;4.57;4.00;;;24.50;40.70;;;;;;2265887;61;20362;-57
2021/08/01 08:07:40;0.00;0.00;0.62;0.00;0.00;0.62;4.13;3.00;;;24.50;40.60;;;;;;2265296;61;20385;-57
2021/08/01 08:10:09;0.00;0.00;0.62;0.00;0.00;0.62;4.37;3.30;;;24.50;40.60;;;;;;2265209;61;20485;-59
2021/08/01 08:12:36;0.00;0.00;0.62;0.00;0.00;0.62;3.20;2.90;;;24.60;40.60;;;;;;2265746;61;20362;-57
2021/08/01 08:15:04;0.00;0.00;0.62;0.00;0.00;0.62;3.97;3.13;;;24.60;40.60;;;;;;2265334;61;20350;-52
2021/08/01 08:17:33;0.00;0.00;0.62;0.00;0.00;0.62;4.27;3.43;;;24.60;40.50;;;;;;2265132;61;20382;-54
2021/08/01 08:20:04;0.00;0.00;0.62;0.00;0.00;0.62;3.73;3.17;;;24.60;40.40;;;;;;2265648;61;20391;-58
2021/08/01 08:22:30;0.00;0.00;0.62;0.00;0.00;0.62;4.87;3.40;;;24.60;40.30;;;;;;2265403;61;20715;-57
2021/08/01 08:24:57;0.00;0.00;0.62;0.00;0.00;0.62;5.67;3.00;;;24.70;40.30;;;;;;2265136;61;20663;-53
2021/08/01 08:27:23;0.00;0.00;0.62;0.00;0.00;0.62;3.67;3.20;;;24.70;40.30;;;;;;2265634;61;20437;-56
2021/08/01 08:29:50;0.00;0.00;0.62;0.00;0.00;0.62;3.50;3.20;;;24.70;40.20;;;;;;2265461;61;20593;-55
2021/08/01 08:32:16;0.00;0.00;0.62;0.00;0.00;0.62;3.50;3.20;;;24.70;40.10;;;;;;2265095;61;20360;-56
2021/08/01 08:34:43;0.00;0.00;0.62;0.00;0.00;0.62;4.23;3.17;;;24.80;40.10;;;;;;2265713;61;20441;-55
2021/08/01 08:37:12;0.00;0.00;0.62;0.00;0.00;0.62;4.00;3.50;;;24.80;40.00;;;;;;2265136;61;20374;-54
2021/08/01 08:39:40;0.00;0.00;0.62;0.00;0.00;0.62;3.60;2.90;;;24.80;39.90;;;;;;2264567;61;20362;-54
2021/08/01 08:42:07;0.00;0.00;0.62;0.00;0.00;0.62;3.13;2.80;;;24.80;39.90;;;;;;2265103;61;20717;-55
2021/08/01 08:44:34;0.00;0.00;0.62;0.00;0.00;0.62;3.17;2.87;;;24.90;39.80;;;;;;2265415;61;20365;-52
2021/08/01 08:47:03;0.00;0.00;0.62;0.00;0.00;0.62;4.17;3.47;;;24.90;39.80;;;;;;2265084;61;20381;-51
2021/08/01 08:49:35;0.00;0.00;0.62;0.00;0.00;0.62;3.23;2.90;;;24.90;39.80;;;;;;2265511;61;20392;-53
2021/08/01 08:52:04;0.00;0.00;0.62;0.00;0.00;0.62;4.00;3.60;;;24.90;39.80;;;;;;2265755;61;20358;-56
2021/08/01 08:54:39;0.00;0.00;0.62;0.00;0.00;0.62;5.33;3.27;;;25.00;39.90;;;;;;2265899;61;20368;-55
2021/08/01 08:57:19;0.00;0.00;0.62;0.00;0.00;0.62;2.90;2.63;;;25.00;39.90;;;;;;2266077;61;20403;-58
2021/08/01 08:59:47;0.00;0.00;0.62;0.00;0.00;0.62;3.80;2.80;;;25.00;39.90;;;;;;2266063;61;20350;-57
2021/08/01 09:02:16;0.00;0.00;0.62;0.00;0.00;0.62;2.80;2.30;;;25.00;39.90;;;;;;2265705;61;20574;-57
2021/08/01 09:04:44;0.00;0.00;0.62;0.00;0.00;0.62;3.00;2.63;;;25.10;39.90;;;;;;2266173;61;20397;-56
2021/08/01 09:07:11;0.00;0.00;0.62;0.00;0.00;0.62;4.97;3.13;;;25.10;39.90;;;;;;2266020;61;20369;-56
2021/08/01 09:09:39;0.00;0.00;0.62;0.00;0.00;0.62;4.03;2.63;;;25.10;39.70;;;;;;2265734;61;20414;-55
2021/08/01 09:12:07;0.00;0.00;0.62;0.00;0.00;0.62;3.90;2.90;;;25.10;39.70;;;;;;2266190;61;20358;-56
2021/08/01 09:14:34;0.00;0.00;0.62;0.00;0.00;0.62;3.73;2.87;;;25.10;39.60;;;;;;2266023;61;20357;-55
2021/08/01 09:17:01;0.00;0.00;0.62;0.00;0.00;0.62;3.17;2.67;;;25.20;39.50;;;;;;2265443;61;20461;-54
2021/08/01 09:19:31;0.00;0.00;0.62;0.00;0.00;0.62;3.27;2.97;;;25.20;39.50;;;;;;2266285;61;20427;-53
2021/08/01 09:22:24;0.00;0.00;0.62;0.00;0.00;0.62;5.23;3.33;;;25.20;39.40;;;;;;2265920;61;20718;-55
2021/08/01 09:24:53;0.00;0.00;0.62;0.00;0.00;0.62;3.60;3.30;;;25.30;39.40;;;;;;2265679;61;20598;-56
2021/08/01 09:27:28;0.00;0.00;0.62;0.00;0.00;0.62;3.43;2.80;;;25.30;39.30;;;;;;2266262;61;20376;-55
2021/08/01 09:29:55;0.00;0.00;0.62;0.00;0.00;0.62;3.20;2.90;;;25.30;39.30;;;;;;2265905;61;20388;-56
2021/08/01 09:32:23;0.00;0.00;0.62;0.00;0.00;0.62;3.40;3.10;;;25.30;39.20;;;;;;2265772;61;20361;-56
2021/08/01 09:34:50;0.00;0.00;0.62;0.00;0.00;0.62;3.80;3.40;;;25.30;39.20;;;;;;2266324;61;20365;-55
2021/08/01 09:37:30;0.00;0.00;0.62;0.00;0.00;0.62;3.57;3.27;;;25.40;39.20;;;;;;2265679;61;20373;-56
2021/08/01 09:40:11;0.00;0.00;0.62;0.00;0.00;0.62;5.17;3.87;;;25.40;39.20;;;;;;2265772;61;20356;-54
2021/08/01 09:42:42;0.00;0.00;0.62;0.00;0.00;0.62;3.60;2.80;;;25.40;39.10;;;;;;2266356;61;20354;-55
2021/08/01 09:45:18;0.00;0.00;0.62;0.00;0.00;0.62;3.60;3.27;;;25.40;39.10;;;;;;2265504;61;20358;-54
2021/08/01 09:47:47;0.00;0.00;0.62;0.00;0.00;0.62;3.93;3.53;;;25.40;38.90;;;;;;2266049;61;20385;-55
2021/08/01 09:50:14;0.00;0.00;0.62;0.00;0.00;0.62;3.90;3.23;;;25.40;38.90;;;;;;2266227;61;20428;-54